sensor_id;sensor_type;location;lat;lon;timestamp;pressure;altitude;pressure_sealevel;temperature;humidity
43824;BME280;29470;53.550;9.926;2023-01-28T00:02:41;102550.06;;;3.74;59.08
43824;BME280;29470;53.550;9.926;2023-01-28T00:07:47;102547.19;;;3.78;58.37
43824;BME280;29470;53.550;9.926;2023-01-28T00:12:50;102539.97;;;3.68;59.07
43824;BME280;29470;53.550;9.926;2023-01-28T00:17:53;102543.16;;;3.80;58.78
43824;BME280;29470;53.550;9.926;2023-01-28T00:22:58;102550.63;;;3.79;58.73
43824;BME280;29470;53.550;9.926;2023-01-28T00:28:00;102553.25;;;3.86;57.63
43824;BME280;29470;53.550;9.926;2023-01-28T00:33:03;102552.03;;;3.97;56.90
43824;BME280;29470;53.550;9.926;2023-01-28T00:38:08;102556.41;;;3.91;56.53
43824;BME280;29470;53.550;9.926;2023-01-28T00:43:11;102545.03;;;3.61;58.84
43824;BME280;29470;53.550;9.926;2023-01-28T00:48:16;102546.13;;;3.36;60.11
43824;BME280;29470;53.550;9.926;2023-01-28T00:53:21;102536.59;;;3.55;58.86
43824;BME280;29470;53.550;9.926;2023-01-28T00:58:24;102540.97;;;3.56;59.59
43824;BME280;29470;53.550;9.926;2023-01-28T01:03:27;102541.84;;;3.49;60.58
43824;BME280;29470;53.550;9.926;2023-01-28T01:08:32;102546.75;;;3.41;61.27
43824;BME280;29470;53.550;9.926;2023-01-28T01:13:41;102540.91;;;3.42;60.30
43824;BME280;29470;53.550;9.926;2023-01-28T01:18:43;102547.06;;;3.36;60.79
43824;BME280;29470;53.550;9.926;2023-01-28T01:23:48;102549.34;;;3.48;60.15
43824;BME280;29470;53.550;9.926;2023-01-28T01:28:53;102548.47;;;3.27;58.14
43824;BME280;29470;53.550;9.926;2023-01-28T01:33:58;102541.44;;;2.99;60.42
43824;BME280;29470;53.550;9.926;2023-01-28T01:39:04;102542.41;;;3.27;60.37
43824;BME280;29470;53.550;9.926;2023-01-28T01:49:44;102534.22;;;3.29;60.63
43824;BME280;29470;53.550;9.926;2023-01-28T01:54:54;102543.91;;;3.32;60.54
43824;BME280;29470;53.550;9.926;2023-01-28T02:00:00;102531.63;;;3.22;60.20
43824;BME280;29470;53.550;9.926;2023-01-28T02:05:17;102542.28;;;3.12;59.93
43824;BME280;29470;53.550;9.926;2023-01-28T02:10:23;102540.84;;;3.14;61.82
43824;BME280;29470;53.550;9.926;2023-01-28T02:15:26;102534.03;;;3.07;60.07
43824;BME280;29470;53.550;9.926;2023-01-28T02:20:37;102533.63;;;3.24;59.92
43824;BME280;29470;53.550;9.926;2023-01-28T02:31:30;102538.69;;;3.17;60.16
43824;BME280;29470;53.550;9.926;2023-01-28T02:36:41;102536.59;;;3.07;61.29
43824;BME280;29470;53.550;9.926;2023-01-28T02:41:49;102538.94;;;2.86;62.52
43824;BME280;29470;53.550;9.926;2023-01-28T02:46:55;102531.53;;;2.74;63.66
43824;BME280;29470;53.550;9.926;2023-01-28T02:52:24;102537.50;;;2.88;63.98
43824;BME280;29470;53.550;9.926;2023-01-28T02:57:49;102540.16;;;2.82;63.06
43824;BME280;29470;53.550;9.926;2023-01-28T03:03:01;102544.63;;;2.70;65.64
43824;BME280;29470;53.550;9.926;2023-01-28T03:08:07;102544.78;;;2.85;64.94
43824;BME280;29470;53.550;9.926;2023-01-28T03:13:25;102529.91;;;2.95;62.69
43824;BME280;29470;53.550;9.926;2023-01-28T03:18:49;102524.59;;;2.93;62.86
43824;BME280;29470;53.550;9.926;2023-01-28T03:24:14;102519.34;;;2.99;62.65
43824;BME280;29470;53.550;9.926;2023-01-28T03:29:40;102526.72;;;2.50;64.14
43824;BME280;29470;53.550;9.926;2023-01-28T03:35:04;102538.22;;;2.20;64.38
43824;BME280;29470;53.550;9.926;2023-01-28T03:40:27;102533.41;;;2.29;67.70
43824;BME280;29470;53.550;9.926;2023-01-28T03:45:30;102543.00;;;2.25;69.33
43824;BME280;29470;53.550;9.926;2023-01-28T03:50:36;102539.44;;;2.17;70.09
43824;BME280;29470;53.550;9.926;2023-01-28T03:55:40;102539.44;;;2.17;69.70
43824;BME280;29470;53.550;9.926;2023-01-28T04:00:42;102541.50;;;2.06;70.27
43824;BME280;29470;53.550;9.926;2023-01-28T04:05:57;102531.19;;;1.99;69.72
43824;BME280;29470;53.550;9.926;2023-01-28T04:11:11;102544.56;;;1.91;70.35
43824;BME280;29470;53.550;9.926;2023-01-28T04:16:19;102533.44;;;1.77;71.24
43824;BME280;29470;53.550;9.926;2023-01-28T04:21:24;102538.75;;;1.79;70.99
43824;BME280;29470;53.550;9.926;2023-01-28T04:26:27;102535.47;;;1.67;72.45
43824;BME280;29470;53.550;9.926;2023-01-28T04:31:30;102533.03;;;1.61;72.60
43824;BME280;29470;53.550;9.926;2023-01-28T04:36:58;102526.91;;;1.41;73.88
43824;BME280;29470;53.550;9.926;2023-01-28T04:42:24;102527.97;;;1.30;74.61
43824;BME280;29470;53.550;9.926;2023-01-28T04:47:44;102533.38;;;1.13;75.21
43824;BME280;29470;53.550;9.926;2023-01-28T04:53:02;102535.44;;;1.28;74.74
43824;BME280;29470;53.550;9.926;2023-01-28T04:58:13;102541.38;;;1.35;74.38
43824;BME280;29470;53.550;9.926;2023-01-28T05:03:18;102546.97;;;1.32;74.29
43824;BME280;29470;53.550;9.926;2023-01-28T05:08:22;102538.53;;;1.39;73.75
43824;BME280;29470;53.550;9.926;2023-01-28T05:13:25;102536.03;;;1.33;74.67
43824;BME280;29470;53.550;9.926;2023-01-28T05:18:28;102519.13;;;1.34;74.37
43824;BME280;29470;53.550;9.926;2023-01-28T05:23:43;102513.03;;;1.39;75.20
43824;BME280;29470;53.550;9.926;2023-01-28T05:28:46;102510.66;;;1.27;75.56
43824;BME280;29470;53.550;9.926;2023-01-28T05:33:49;102492.16;;;1.10;76.82
43824;BME280;29470;53.550;9.926;2023-01-28T05:38:55;102504.84;;;0.84;78.85
43824;BME280;29470;53.550;9.926;2023-01-28T05:43:58;102512.28;;;0.82;80.20
43824;BME280;29470;53.550;9.926;2023-01-28T05:49:19;102522.09;;;0.73;80.88
43824;BME280;29470;53.550;9.926;2023-01-28T05:54:44;102507.53;;;0.72;82.19
43824;BME280;29470;53.550;9.926;2023-01-28T05:59:50;102495.88;;;0.80;83.06
43824;BME280;29470;53.550;9.926;2023-01-28T06:04:53;102514.06;;;0.70;84.54
43824;BME280;29470;53.550;9.926;2023-01-28T06:09:57;102511.72;;;0.72;85.17
43824;BME280;29470;53.550;9.926;2023-01-28T06:15:00;102503.81;;;0.76;85.01
43824;BME280;29470;53.550;9.926;2023-01-28T06:20:20;102498.63;;;0.95;84.97
43824;BME280;29470;53.550;9.926;2023-01-28T06:25:26;102502.66;;;1.06;85.12
43824;BME280;29470;53.550;9.926;2023-01-28T06:30:33;102487.25;;;1.11;84.74
43824;BME280;29470;53.550;9.926;2023-01-28T06:35:36;102486.53;;;0.99;85.42
43824;BME280;29470;53.550;9.926;2023-01-28T06:40:41;102479.88;;;0.81;84.57
43824;BME280;29470;53.550;9.926;2023-01-28T06:45:44;102494.50;;;0.77;85.43
43824;BME280;29470;53.550;9.926;2023-01-28T06:50:47;102485.06;;;0.57;87.31
43824;BME280;29470;53.550;9.926;2023-01-28T06:55:51;102514.28;;;0.35;87.43
43824;BME280;29470;53.550;9.926;2023-01-28T07:00:54;102530.00;;;0.38;87.40
43824;BME280;29470;53.550;9.926;2023-01-28T07:05:57;102543.59;;;0.20;88.83
43824;BME280;29470;53.550;9.926;2023-01-28T07:11:02;102554.06;;;0.16;89.03
43824;BME280;29470;53.550;9.926;2023-01-28T07:16:05;102573.34;;;0.08;89.74
43824;BME280;29470;53.550;9.926;2023-01-28T07:21:08;102581.69;;;0.07;89.54
43824;BME280;29470;53.550;9.926;2023-01-28T07:26:13;102579.78;;;0.11;90.13
43824;BME280;29470;53.550;9.926;2023-01-28T07:31:17;102575.13;;;0.14;90.08
43824;BME280;29470;53.550;9.926;2023-01-28T07:36:21;102574.69;;;-0.07;92.31
43824;BME280;29470;53.550;9.926;2023-01-28T07:41:25;102576.81;;;0.08;93.05
43824;BME280;29470;53.550;9.926;2023-01-28T07:46:34;102594.50;;;0.20;92.72
43824;BME280;29470;53.550;9.926;2023-01-28T07:51:37;102586.28;;;0.09;93.26
43824;BME280;29470;53.550;9.926;2023-01-28T07:56:41;102589.78;;;0.28;92.46
43824;BME280;29470;53.550;9.926;2023-01-28T08:01:44;102587.81;;;0.20;92.02
43824;BME280;29470;53.550;9.926;2023-01-28T08:06:53;102605.16;;;0.41;90.18
43824;BME280;29470;53.550;9.926;2023-01-28T08:11:59;102602.38;;;0.21;90.47
43824;BME280;29470;53.550;9.926;2023-01-28T08:17:07;102608.72;;;0.12;90.14
43824;BME280;29470;53.550;9.926;2023-01-28T08:22:12;102599.44;;;0.12;89.48
43824;BME280;29470;53.550;9.926;2023-01-28T08:27:34;102601.19;;;0.43;89.12
43824;BME280;29470;53.550;9.926;2023-01-28T08:32:41;102598.94;;;0.77;88.49
43824;BME280;29470;53.550;9.926;2023-01-28T08:37:44;102595.75;;;0.91;86.13
43824;BME280;29470;53.550;9.926;2023-01-28T08:42:53;102597.09;;;1.13;83.59
43824;BME280;29470;53.550;9.926;2023-01-28T08:47:59;102595.28;;;1.25;82.12
43824;BME280;29470;53.550;9.926;2023-01-28T08:53:04;102617.25;;;1.11;81.21
43824;BME280;29470;53.550;9.926;2023-01-28T08:58:11;102621.78;;;1.01;81.43
43824;BME280;29470;53.550;9.926;2023-01-28T09:03:14;102618.94;;;1.24;80.57
43824;BME280;29470;53.550;9.926;2023-01-28T09:08:18;102626.00;;;1.64;79.06
43824;BME280;29470;53.550;9.926;2023-01-28T09:13:23;102622.16;;;2.12;78.38
43824;BME280;29470;53.550;9.926;2023-01-28T09:18:26;102649.69;;;1.75;78.15
43824;BME280;29470;53.550;9.926;2023-01-28T09:23:28;102655.38;;;1.67;76.60
43824;BME280;29470;53.550;9.926;2023-01-28T09:28:33;102657.75;;;1.91;75.12
43824;BME280;29470;53.550;9.926;2023-01-28T09:33:37;102665.97;;;2.41;73.37
43824;BME280;29470;53.550;9.926;2023-01-28T09:38:40;102665.53;;;1.99;72.69
43824;BME280;29470;53.550;9.926;2023-01-28T09:43:56;102654.34;;;2.43;69.21
43824;BME280;29470;53.550;9.926;2023-01-28T09:49:10;102652.38;;;2.21;70.95
43824;BME280;29470;53.550;9.926;2023-01-28T09:54:23;102641.56;;;2.30;68.71
43824;BME280;29470;53.550;9.926;2023-01-28T09:59:32;102644.00;;;2.48;69.96
43824;BME280;29470;53.550;9.926;2023-01-28T10:04:44;102621.31;;;3.44;66.56
43824;BME280;29470;53.550;9.926;2023-01-28T10:09:55;102613.34;;;3.55;65.39
43824;BME280;29470;53.550;9.926;2023-01-28T10:15:21;102619.38;;;2.95;65.27
43824;BME280;29470;53.550;9.926;2023-01-28T10:20:29;102619.63;;;3.04;67.01
43824;BME280;29470;53.550;9.926;2023-01-28T10:25:34;102620.03;;;3.07;67.25
43824;BME280;29470;53.550;9.926;2023-01-28T10:30:40;102608.22;;;3.55;67.42
43824;BME280;29470;53.550;9.926;2023-01-28T10:35:44;102601.28;;;4.09;62.48
43824;BME280;29470;53.550;9.926;2023-01-28T10:40:49;102592.66;;;3.26;64.81
43824;BME280;29470;53.550;9.926;2023-01-28T10:45:58;102581.66;;;3.95;63.23
43824;BME280;29470;53.550;9.926;2023-01-28T10:51:03;102573.00;;;4.15;60.69
43824;BME280;29470;53.550;9.926;2023-01-28T10:56:08;102562.91;;;3.81;63.15
43824;BME280;29470;53.550;9.926;2023-01-28T11:01:14;102548.72;;;3.91;62.04
43824;BME280;29470;53.550;9.926;2023-01-28T11:06:23;102533.28;;;3.76;62.47
43824;BME280;29470;53.550;9.926;2023-01-28T11:11:27;102542.63;;;3.28;65.00
43824;BME280;29470;53.550;9.926;2023-01-28T11:16:32;102540.91;;;3.01;67.43
43824;BME280;29470;53.550;9.926;2023-01-28T11:21:35;102523.22;;;3.23;67.04
43824;BME280;29470;53.550;9.926;2023-01-28T11:26:38;102506.19;;;3.44;66.06
43824;BME280;29470;53.550;9.926;2023-01-28T11:31:46;102493.69;;;3.94;63.81
43824;BME280;29470;53.550;9.926;2023-01-28T11:36:50;102499.38;;;4.48;61.61
43824;BME280;29470;53.550;9.926;2023-01-28T11:41:53;102481.03;;;4.38;62.18
43824;BME280;29470;53.550;9.926;2023-01-28T11:47:13;102505.13;;;3.76;63.53
43824;BME280;29470;53.550;9.926;2023-01-28T11:52:25;102488.56;;;4.36;63.51
43824;BME280;29470;53.550;9.926;2023-01-28T11:57:58;102488.34;;;3.58;65.28
43824;BME280;29470;53.550;9.926;2023-01-28T12:03:22;102494.47;;;3.38;67.21
43824;BME280;29470;53.550;9.926;2023-01-28T12:08:37;102490.94;;;3.31;69.20
43824;BME280;29470;53.550;9.926;2023-01-28T12:13:52;102487.47;;;3.30;69.96
43824;BME280;29470;53.550;9.926;2023-01-28T12:19:26;102485.97;;;3.52;68.80
43824;BME280;29470;53.550;9.926;2023-01-28T12:24:41;102482.25;;;3.43;69.85
43824;BME280;29470;53.550;9.926;2023-01-28T12:29:54;102472.41;;;4.23;66.82
43824;BME280;29470;53.550;9.926;2023-01-28T12:35:23;102461.38;;;4.09;65.42
43824;BME280;29470;53.550;9.926;2023-01-28T12:40:51;102455.28;;;3.94;67.21
43824;BME280;29470;53.550;9.926;2023-01-28T12:45:57;102455.22;;;4.22;66.35
43824;BME280;29470;53.550;9.926;2023-01-28T12:51:09;102435.13;;;4.76;64.44
43824;BME280;29470;53.550;9.926;2023-01-28T12:56:17;102423.25;;;4.69;66.40
43824;BME280;29470;53.550;9.926;2023-01-28T13:01:24;102414.47;;;4.74;66.15
43824;BME280;29470;53.550;9.926;2023-01-28T13:06:34;102426.91;;;4.78;65.44
43824;BME280;29470;53.550;9.926;2023-01-28T13:11:40;102417.56;;;4.57;65.91
43824;BME280;29470;53.550;9.926;2023-01-28T13:16:43;102415.47;;;4.18;67.50
43824;BME280;29470;53.550;9.926;2023-01-28T13:21:47;102408.69;;;4.04;69.50
43824;BME280;29470;53.550;9.926;2023-01-28T13:26:53;102404.88;;;3.66;71.62
43824;BME280;29470;53.550;9.926;2023-01-28T13:31:58;102418.34;;;3.50;72.60
43824;BME280;29470;53.550;9.926;2023-01-28T13:37:16;102432.56;;;3.48;73.55
43824;BME280;29470;53.550;9.926;2023-01-28T13:42:25;102431.63;;;3.41;73.72
43824;BME280;29470;53.550;9.926;2023-01-28T13:47:30;102428.88;;;4.23;71.11
43824;BME280;29470;53.550;9.926;2023-01-28T13:52:41;102445.19;;;4.52;68.87
43824;BME280;29470;53.550;9.926;2023-01-28T14:03:40;102438.59;;;4.47;67.78
43824;BME280;29470;53.550;9.926;2023-01-28T14:09:01;102448.13;;;4.55;67.63
43824;BME280;29470;53.550;9.926;2023-01-28T14:14:39;102442.47;;;4.72;67.33
43824;BME280;29470;53.550;9.926;2023-01-28T14:19:48;102436.25;;;4.78;66.71
43824;BME280;29470;53.550;9.926;2023-01-28T14:24:55;102426.34;;;4.81;66.66
43824;BME280;29470;53.550;9.926;2023-01-28T14:30:07;102426.91;;;4.85;68.04
43824;BME280;29470;53.550;9.926;2023-01-28T14:35:20;102425.97;;;4.49;67.96
43824;BME280;29470;53.550;9.926;2023-01-28T14:40:28;102411.28;;;4.19;71.20
43824;BME280;29470;53.550;9.926;2023-01-28T14:45:44;102417.66;;;4.15;71.49
43824;BME280;29470;53.550;9.926;2023-01-28T14:56:29;102447.38;;;4.42;71.52
43824;BME280;29470;53.550;9.926;2023-01-28T15:01:43;102449.75;;;4.55;71.15
43824;BME280;29470;53.550;9.926;2023-01-28T15:06:46;102453.66;;;4.73;71.51
43824;BME280;29470;53.550;9.926;2023-01-28T15:11:53;102469.13;;;4.31;71.00
43824;BME280;29470;53.550;9.926;2023-01-28T15:16:58;102453.41;;;4.50;70.35
43824;BME280;29470;53.550;9.926;2023-01-28T15:22:03;102453.91;;;4.18;73.87
43824;BME280;29470;53.550;9.926;2023-01-28T15:27:16;102439.19;;;3.95;74.33
43824;BME280;29470;53.550;9.926;2023-01-28T15:32:23;102421.88;;;4.15;74.07
43824;BME280;29470;53.550;9.926;2023-01-28T15:37:27;102425.97;;;3.85;76.46
43824;BME280;29470;53.550;9.926;2023-01-28T15:42:33;102441.25;;;3.71;77.11
43824;BME280;29470;53.550;9.926;2023-01-28T15:47:36;102439.75;;;3.58;78.41
43824;BME280;29470;53.550;9.926;2023-01-28T15:52:40;102436.78;;;3.48;79.18
43824;BME280;29470;53.550;9.926;2023-01-28T15:57:47;102418.47;;;3.37;80.77
43824;BME280;29470;53.550;9.926;2023-01-28T16:02:51;102424.78;;;3.27;81.52
43824;BME280;29470;53.550;9.926;2023-01-28T16:07:56;102421.97;;;3.45;80.97
43824;BME280;29470;53.550;9.926;2023-01-28T16:13:03;102420.09;;;3.37;82.16
43824;BME280;29470;53.550;9.926;2023-01-28T16:18:21;102421.31;;;3.61;81.39
43824;BME280;29470;53.550;9.926;2023-01-28T16:23:28;102431.47;;;3.46;81.77
43824;BME280;29470;53.550;9.926;2023-01-28T16:28:32;102425.94;;;3.78;82.72
43824;BME280;29470;53.550;9.926;2023-01-28T16:33:35;102430.06;;;3.56;83.34
43824;BME280;29470;53.550;9.926;2023-01-28T16:38:38;102427.56;;;3.70;84.62
43824;BME280;29470;53.550;9.926;2023-01-28T16:43:43;102440.94;;;3.75;82.57
43824;BME280;29470;53.550;9.926;2023-01-28T16:48:46;102428.75;;;3.45;84.80
43824;BME280;29470;53.550;9.926;2023-01-28T16:53:49;102403.31;;;3.88;84.12
43824;BME280;29470;53.550;9.926;2023-01-28T16:58:53;102428.19;;;3.47;84.86
43824;BME280;29470;53.550;9.926;2023-01-28T17:03:57;102439.59;;;3.64;85.70
43824;BME280;29470;53.550;9.926;2023-01-28T17:09:00;102452.34;;;3.57;87.53
43824;BME280;29470;53.550;9.926;2023-01-28T17:14:04;102436.88;;;3.69;87.64
43824;BME280;29470;53.550;9.926;2023-01-28T17:19:07;102424.94;;;3.97;87.99
43824;BME280;29470;53.550;9.926;2023-01-28T17:24:10;102427.59;;;3.77;88.35
43824;BME280;29470;53.550;9.926;2023-01-28T17:29:15;102427.97;;;3.38;88.29
43824;BME280;29470;53.550;9.926;2023-01-28T17:34:17;102426.56;;;3.48;90.20
43824;BME280;29470;53.550;9.926;2023-01-28T17:39:20;102433.97;;;3.74;90.10
43824;BME280;29470;53.550;9.926;2023-01-28T17:44:24;102438.63;;;3.56;89.06
43824;BME280;29470;53.550;9.926;2023-01-28T17:49:28;102422.38;;;3.97;88.00
43824;BME280;29470;53.550;9.926;2023-01-28T17:54:31;102421.63;;;3.91;86.80
43824;BME280;29470;53.550;9.926;2023-01-28T17:59:37;102442.41;;;3.45;87.71
43824;BME280;29470;53.550;9.926;2023-01-28T18:04:41;102424.66;;;3.74;87.68
43824;BME280;29470;53.550;9.926;2023-01-28T18:09:44;102426.81;;;3.64;87.93
43824;BME280;29470;53.550;9.926;2023-01-28T18:14:48;102442.50;;;3.60;88.04
43824;BME280;29470;53.550;9.926;2023-01-28T18:19:51;102444.47;;;3.55;87.79
43824;BME280;29470;53.550;9.926;2023-01-28T18:24:54;102455.47;;;3.61;89.28
43824;BME280;29470;53.550;9.926;2023-01-28T18:29:59;102458.38;;;3.57;89.69
43824;BME280;29470;53.550;9.926;2023-01-28T18:35:02;102462.03;;;3.52;89.58
43824;BME280;29470;53.550;9.926;2023-01-28T18:40:08;102459.88;;;3.62;89.94
43824;BME280;29470;53.550;9.926;2023-01-28T18:45:12;102444.66;;;3.22;91.55
43824;BME280;29470;53.550;9.926;2023-01-28T18:50:16;102439.06;;;3.66;91.63
43824;BME280;29470;53.550;9.926;2023-01-28T18:55:18;102439.91;;;3.52;92.35
43824;BME280;29470;53.550;9.926;2023-01-28T19:00:23;102418.84;;;3.41;95.81
43824;BME280;29470;53.550;9.926;2023-01-28T19:05:26;102427.47;;;3.48;95.34
43824;BME280;29470;53.550;9.926;2023-01-28T19:10:29;102402.94;;;3.85;94.38
43824;BME280;29470;53.550;9.926;2023-01-28T19:15:35;102408.16;;;3.65;94.20
43824;BME280;29470;53.550;9.926;2023-01-28T19:20:38;102406.72;;;3.67;96.03
43824;BME280;29470;53.550;9.926;2023-01-28T19:25:41;102413.69;;;3.33;98.85
43824;BME280;29470;53.550;9.926;2023-01-28T19:30:50;102408.53;;;3.26;98.34
43824;BME280;29470;53.550;9.926;2023-01-28T19:35:54;102399.44;;;3.08;100.00
43824;BME280;29470;53.550;9.926;2023-01-28T19:41:04;102404.31;;;3.27;100.00
43824;BME280;29470;53.550;9.926;2023-01-28T19:46:13;102408.88;;;3.22;100.00
43824;BME280;29470;53.550;9.926;2023-01-28T19:51:17;102394.41;;;3.50;100.00
43824;BME280;29470;53.550;9.926;2023-01-28T19:56:23;102405.41;;;3.29;100.00
43824;BME280;29470;53.550;9.926;2023-01-28T20:01:28;102416.00;;;3.24;100.00
43824;BME280;29470;53.550;9.926;2023-01-28T20:06:32;102412.44;;;3.09;100.00
43824;BME280;29470;53.550;9.926;2023-01-28T20:11:36;102402.97;;;3.50;100.00
43824;BME280;29470;53.550;9.926;2023-01-28T20:16:40;102395.44;;;3.37;100.00
43824;BME280;29470;53.550;9.926;2023-01-28T20:21:43;102388.91;;;3.47;100.00
43824;BME280;29470;53.550;9.926;2023-01-28T20:26:47;102394.97;;;3.54;100.00
43824;BME280;29470;53.550;9.926;2023-01-28T20:31:51;102393.91;;;3.25;100.00
43824;BME280;29470;53.550;9.926;2023-01-28T20:37:16;102380.13;;;3.45;100.00
43824;BME280;29470;53.550;9.926;2023-01-28T20:42:19;102363.78;;;3.79;100.00
43824;BME280;29470;53.550;9.926;2023-01-28T20:47:23;102372.59;;;3.39;100.00
43824;BME280;29470;53.550;9.926;2023-01-28T20:52:26;102365.53;;;3.51;100.00
43824;BME280;29470;53.550;9.926;2023-01-28T20:57:29;102364.56;;;3.43;100.00
43824;BME280;29470;53.550;9.926;2023-01-28T21:02:33;102367.91;;;3.49;100.00
43824;BME280;29470;53.550;9.926;2023-01-28T21:07:41;102369.09;;;3.31;100.00
43824;BME280;29470;53.550;9.926;2023-01-28T21:12:44;102356.66;;;3.76;100.00
43824;BME280;29470;53.550;9.926;2023-01-28T21:17:48;102349.53;;;3.81;100.00
43824;BME280;29470;53.550;9.926;2023-01-28T21:22:52;102339.94;;;3.44;100.00
43824;BME280;29470;53.550;9.926;2023-01-28T21:27:55;102350.88;;;3.43;100.00
43824;BME280;29470;53.550;9.926;2023-01-28T21:32:59;102361.63;;;3.40;100.00
43824;BME280;29470;53.550;9.926;2023-01-28T21:38:02;102357.38;;;3.68;100.00
43824;BME280;29470;53.550;9.926;2023-01-28T21:43:05;102348.72;;;4.17;100.00
43824;BME280;29470;53.550;9.926;2023-01-28T21:48:09;102353.81;;;4.02;100.00
43824;BME280;29470;53.550;9.926;2023-01-28T21:53:12;102350.66;;;3.90;100.00
43824;BME280;29470;53.550;9.926;2023-01-28T21:58:15;102347.06;;;3.53;100.00
43824;BME280;29470;53.550;9.926;2023-01-28T22:03:36;102343.28;;;3.64;100.00
43824;BME280;29470;53.550;9.926;2023-01-28T22:08:40;102338.16;;;3.72;100.00
43824;BME280;29470;53.550;9.926;2023-01-28T22:13:46;102336.03;;;3.89;100.00
43824;BME280;29470;53.550;9.926;2023-01-28T22:18:53;102337.03;;;3.62;100.00
43824;BME280;29470;53.550;9.926;2023-01-28T22:23:56;102341.97;;;3.53;100.00
43824;BME280;29470;53.550;9.926;2023-01-28T22:28:59;102339.13;;;3.79;100.00
43824;BME280;29470;53.550;9.926;2023-01-28T22:34:04;102323.03;;;3.73;100.00
43824;BME280;29470;53.550;9.926;2023-01-28T22:39:11;102316.97;;;3.73;100.00
43824;BME280;29470;53.550;9.926;2023-01-28T22:44:14;102318.75;;;3.59;100.00
43824;BME280;29470;53.550;9.926;2023-01-28T22:49:19;102318.28;;;3.27;100.00
43824;BME280;29470;53.550;9.926;2023-01-28T22:54:22;102302.00;;;3.76;100.00
43824;BME280;29470;53.550;9.926;2023-01-28T22:59:25;102297.81;;;3.83;100.00
43824;BME280;29470;53.550;9.926;2023-01-28T23:04:29;102291.59;;;3.74;100.00
43824;BME280;29470;53.550;9.926;2023-01-28T23:09:32;102286.63;;;3.68;100.00
43824;BME280;29470;53.550;9.926;2023-01-28T23:14:35;102286.56;;;3.54;100.00
43824;BME280;29470;53.550;9.926;2023-01-28T23:20:03;102277.84;;;3.66;100.00
43824;BME280;29470;53.550;9.926;2023-01-28T23:25:23;102282.22;;;3.60;100.00
43824;BME280;29470;53.550;9.926;2023-01-28T23:30:26;102273.97;;;3.48;100.00
43824;BME280;29470;53.550;9.926;2023-01-28T23:35:30;102285.50;;;3.52;100.00
43824;BME280;29470;53.550;9.926;2023-01-28T23:40:33;102279.66;;;3.60;100.00
43824;BME280;29470;53.550;9.926;2023-01-28T23:45:36;102291.91;;;3.56;100.00
43824;BME280;29470;53.550;9.926;2023-01-28T23:50:40;102298.13;;;3.65;100.00
43824;BME280;29470;53.550;9.926;2023-01-28T23:55:43;102294.69;;;3.79;100.00
